Time;durP1;ratioP1;P1;durP2;ratioP2;P2;SDS_P1;SDS_P2;PMS_P1;PMS_P2;Temp;Humidity;BMP_temperature;BMP_pressure;BME280_temperature;BME280_humidity;BME280_pressure;Samples;Min_cycle;Max_cycle;Signal;HPM_P1;HPM_P2
2023/04/04 00:00:29;;;;;;;6.68;4.97;;;;;;;6.66;81.79;93254.81;5068935;28;20024;-85
2023/04/04 00:02:57;;;;;;;6.07;4.85;;;;;;;6.25;81.66;93194.91;5049243;28;20024;-84
2023/04/04 00:05:22;;;;;;;7.47;4.93;;;;;;;7.12;81.76;93322.00;5063304;28;20421;-85
2023/04/04 00:07:52;;;;;;;6.57;4.55;;;;;;;6.87;82.23;93289.91;5085043;28;20036;-85
2023/04/04 00:10:20;;;;;;;6.25;4.63;;;;;;;6.34;81.82;93208.72;5086873;28;20024;-85
2023/04/04 00:12:48;;;;;;;5.40;3.67;;;;;;;6.21;82.10;93174.69;5089454;28;20024;-85
2023/04/04 00:15:14;;;;;;;6.35;4.40;;;;;;;7.02;82.04;93296.25;5073352;28;20032;-81
2023/04/04 00:17:40;;;;;;;6.28;4.10;;;;;;;6.81;81.58;93262.06;5069991;28;20032;-84
2023/04/04 00:20:06;;;;;;;6.30;4.50;;;;;;;6.71;81.28;93247.44;5052470;28;20032;-84
2023/04/04 00:22:34;;;;;;;5.35;4.35;;;;;;;7.16;81.16;93318.19;5086783;28;20123;-85
2023/04/04 00:25:03;;;;;;;6.15;4.85;;;;;;;7.47;81.54;93400.59;5069897;28;20044;-85
2023/04/04 00:27:32;;;;;;;11.13;7.00;;;;;;;6.72;81.83;93269.72;5073063;28;20413;-84
2023/04/04 00:29:58;;;;;;;9.23;7.00;;;;;;;6.72;82.10;93274.88;5090111;28;20028;-84
2023/04/04 00:32:23;;;;;;;7.45;6.10;;;;;;;6.16;81.55;93151.94;5073904;28;20073;-84
2023/04/04 00:34:52;;;;;;;6.22;4.72;;;;;;;6.71;81.64;93247.44;5068927;28;20625;-84
2023/04/04 00:37:23;;;;;;;4.85;4.20;;;;;;;6.66;81.17;93234.16;5053178;28;20168;-84
2023/04/04 00:39:49;;;;;;;6.88;5.20;;;;;;;6.79;81.87;93249.31;5037960;28;20040;-84
2023/04/04 00:42:15;;;;;;;5.57;3.60;;;;;;;7.21;81.93;93302.25;5070150;28;20033;-85
2023/04/04 00:44:45;;;;;;;4.72;3.40;;;;;;;6.56;81.28;93197.25;5070264;28;20463;-84
2023/04/04 00:47:11;;;;;;;4.50;3.45;;;;;;;6.70;81.84;93225.16;5055163;28;20028;-85
2023/04/04 00:49:37;;;;;;;5.15;3.40;;;;;;;6.42;81.49;93201.09;5057585;28;20505;-85
2023/04/04 00:52:05;;;;;;;5.85;4.00;;;;;;;6.87;81.42;93240.84;5057648;28;20075;-84
2023/04/04 00:54:31;;;;;;;3.72;3.00;;;;;;;6.22;80.96;93135.88;5057300;28;20082;-84
2023/04/04 00:56:59;;;;;;;3.63;3.05;;;;;;;7.60;80.60;93345.03;5057349;28;20028;-84
2023/04/04 00:59:26;;;;;;;3.30;3.00;;;;;;;6.81;80.24;93220.78;5057152;28;20074;-84
2023/04/04 01:01:52;;;;;;;3.38;2.80;;;;;;;7.45;80.28;93318.03;5057909;28;20028;-84
2023/04/04 01:04:20;;;;;;;3.05;2.55;;;;;;;6.37;79.26;93163.78;5057193;28;20048;-84
2023/04/04 01:06:49;;;;;;;3.20;2.88;;;;;;;6.70;80.66;93201.94;5073750;28;20053;-84
2023/04/04 01:09:15;;;;;;;3.40;3.05;;;;;;;6.75;80.78;93211.84;5057278;28;20034;-85
2023/04/04 01:11:43;;;;;;;3.95;2.92;;;;;;;7.70;81.34;93367.41;5082557;28;20046;-84
2023/04/04 01:14:08;;;;;;;3.40;2.75;;;;;;;7.03;81.46;93263.47;5093446;28;20085;-84
2023/04/04 01:16:35;;;;;;;3.47;3.05;;;;;;;7.03;81.17;93253.97;5060164;28;20028;-84
2023/04/04 01:19:02;;;;;;;4.18;3.38;;;;;;;7.79;81.15;93367.34;5077186;28;20032;-83
2023/04/04 01:21:27;;;;;;;3.60;3.20;;;;;;;7.68;81.00;93353.81;5090554;28;20052;-83
2023/04/04 01:24:01;;;;;;;3.70;3.28;;;;;;;6.89;80.47;93210.56;5040449;28;20038;-84
2023/04/04 01:26:27;;;;;;;3.13;2.83;;;;;;;6.84;80.28;93231.63;5090320;28;20036;-84
2023/04/04 01:28:55;;;;;;;4.65;3.60;;;;;;;6.68;80.17;93192.72;5091506;28;20421;-85
2023/04/04 01:31:39;;;;;;;3.85;3.17;;;;;;;7.15;80.64;93257.16;5077158;28;20042;-85
2023/04/04 01:34:22;;;;;;;4.68;3.33;;;;;;;7.51;80.95;93322.63;5078455;28;20498;-84
2023/04/04 01:37:01;;;;;;;3.58;3.05;;;;;;;6.97;81.03;93257.13;5077019;28;20192;-85
2023/04/04 01:39:35;;;;;;;3.85;2.78;;;;;;;6.88;81.55;93260.53;5077313;28;20035;-85
2023/04/04 01:42:04;;;;;;;4.22;2.53;;;;;;;6.40;81.60;93177.19;5074990;28;20085;-85
2023/04/04 01:44:30;;;;;;;2.92;2.58;;;;;;;6.25;81.48;93166.53;5059799;28;20036;-85
2023/04/04 01:47:04;;;;;;;3.30;2.42;;;;;;;6.84;81.48;93266.94;5073002;28;20028;-84
2023/04/04 01:49:35;;;;;;;2.22;1.80;;;;;;;6.72;80.16;93253.41;5095858;27;20509;-85
2023/04/04 01:52:05;;;;;;;2.28;1.67;;;;;;;6.34;78.51;93187.28;5056147;28;20036;-85
2023/04/04 01:54:34;;;;;;;2.28;1.48;;;;;;;6.14;78.96;93164.13;5091291;28;20057;-85
2023/04/04 01:57:03;;;;;;;1.83;1.50;;;;;;;7.09;79.21;93310.19;5075699;28;20029;-85
2023/04/04 01:59:30;;;;;;;1.83;1.40;;;;;;;7.26;77.94;93329.28;5093747;28;20032;-85
2023/04/04 02:01:56;;;;;;;1.40;0.95;;;;;;;6.42;77.73;93195.94;5052348;28;20136;-84
2023/04/04 02:04:24;;;;;;;1.75;1.13;;;;;;;6.61;77.59;93214.91;5071023;28;20127;-85
2023/04/04 02:06:51;;;;;;;1.70;1.10;;;;;;;6.78;77.23;93219.28;5058200;28;20056;-85
2023/04/04 02:09:17;;;;;;;1.70;1.20;;;;;;;6.88;77.53;93245.03;5071222;28;20032;-84
2023/04/04 02:11:43;;;;;;;1.70;1.05;;;;;;;6.69;76.81;93207.25;5038214;28;20483;-84
2023/04/04 02:14:08;;;;;;;1.33;0.85;;;;;;;7.17;77.30;93288.81;5070869;28;20054;-84
2023/04/04 02:16:35;;;;;;;1.25;0.80;;;;;;;6.62;77.15;93204.41;5065036;28;20024;-84
2023/04/04 02:19:00;;;;;;;1.58;0.93;;;;;;;6.83;76.55;93237.75;5070004;28;20048;-84
2023/04/04 02:21:29;;;;;;;1.60;0.90;;;;;;;6.72;77.13;93228.41;5058232;28;20025;-84
2023/04/04 02:23:59;;;;;;;1.20;0.85;;;;;;;6.64;77.16;93217.19;5077545;28;20059;-84
2023/04/04 02:26:26;;;;;;;1.27;0.70;;;;;;;6.50;76.89;93202.97;5059042;28;20123;-85
2023/04/04 02:28:54;;;;;;;2.75;0.80;;;;;;;6.84;77.56;93274.69;5069203;28;20510;-83
2023/04/04 02:31:19;;;;;;;1.20;0.70;;;;;;;6.42;78.25;93223.50;5053664;28;20028;-84
2023/04/04 02:33:45;;;;;;;0.98;0.60;;;;;;;5.91;77.40;93131.91;5070664;28;20456;-84
2023/04/04 02:36:11;;;;;;;1.20;0.70;;;;;;;6.60;78.01;93221.00;5086837;28;20032;-84
2023/04/04 02:38:37;;;;;;;1.95;0.73;;;;;;;6.88;77.89;93279.44;5058294;28;20028;-84
2023/04/04 02:41:02;;;;;;;2.25;0.65;;;;;;;6.17;78.37;93186.25;5053856;28;20130;-84
2023/04/04 02:43:29;;;;;;;1.60;0.80;;;;;;;6.29;78.03;93210.09;5054031;28;20040;-84
2023/04/04 02:45:57;;;;;;;3.05;0.98;;;;;;;6.24;78.61;93200.19;5073582;28;20056;-85
2023/04/04 02:48:26;;;;;;;1.10;0.60;;;;;;;6.59;79.21;93263.25;5091450;28;20036;-84
2023/04/04 02:50:52;;;;;;;1.13;0.60;;;;;;;6.08;78.80;93208.53;5091171;28;20020;-84
2023/04/04 02:53:18;;;;;;;1.55;0.77;;;;;;;7.10;79.20;93329.06;5073457;28;20036;-83
2023/04/04 02:55:44;;;;;;;1.15;0.70;;;;;;;6.19;80.07;93216.09;5072769;28;20042;-84
2023/04/04 02:58:09;;;;;;;1.40;0.90;;;;;;;6.94;79.68;93309.84;5090867;28;20032;-83
2023/04/04 03:00:35;;;;;;;4.80;2.78;;;;;;;6.25;79.71;93188.94;5073867;28;20547;-84
2023/04/04 03:03:01;;;;;;;8.93;6.15;;;;;;;6.24;79.78;93185.56;5070057;28;20131;-84
2023/04/04 03:05:27;;;;;;;7.53;4.72;;;;;;;6.38;79.59;93219.56;5036734;28;20578;-84
2023/04/04 03:07:54;;;;;;;8.68;6.35;;;;;;;7.14;80.14;93322.69;5053160;28;20498;-84
2023/04/04 03:10:21;;;;;;;7.78;5.47;;;;;;;6.81;79.51;93252.56;5069203;28;20036;-84
2023/04/04 03:12:50;;;;;;;5.38;3.67;;;;;;;6.54;79.29;93219.78;5063362;28;20039;-84
2023/04/04 03:15:15;;;;;;;2.45;1.30;;;;;;;6.64;79.57;93230.09;5086308;28;20033;-84
2023/04/04 03:17:41;;;;;;;2.00;1.23;;;;;;;5.99;79.58;93132.00;5071282;28;20030;-85
2023/04/04 03:20:10;;;;;;;1.60;1.10;;;;;;;6.41;79.71;93193.53;5069354;28;20025;-84
2023/04/04 03:22:36;;;;;;;3.15;1.77;;;;;;;6.78;79.81;93252.03;5069899;28;20115;-84
2023/04/04 03:25:02;;;;;;;12.30;7.35;;;;;;;6.97;79.59;93262.28;5086282;28;20562;-85
2023/04/04 03:27:30;;;;;;;39.25;10.93;;;;;;;6.67;80.29;93232.38;5086279;28;20415;-84
2023/04/04 03:29:55;;;;;;;7.60;2.67;;;;;;;6.23;80.63;93167.63;5072119;28;20048;-84
2023/04/04 03:32:21;;;;;;;23.85;9.52;;;;;;;6.15;81.23;93177.84;5069692;28;20031;-84
2023/04/04 03:34:47;;;;;;;57.20;22.40;;;;;;;6.38;81.46;93209.25;5071067;28;20028;-84
2023/04/04 03:37:15;;;;;;;22.50;8.25;;;;;;;6.59;81.32;93258.88;5071684;28;20028;-84
2023/04/04 03:39:41;;;;;;;5.53;2.95;;;;;;;6.22;81.33;93187.47;5072818;28;20395;-84
2023/04/04 03:42:06;;;;;;;3.67;2.28;;;;;;;6.35;81.58;93206.94;5071784;28;20036;-82
2023/04/04 03:44:32;;;;;;;4.07;2.40;;;;;;;6.76;81.52;93269.44;5083476;28;20100;-83
2023/04/04 03:47:00;;;;;;;8.82;6.30;;;;;;;6.71;81.48;93252.63;5052130;28;20569;-83
2023/04/04 03:49:26;;;;;;;6.43;4.47;;;;;;;6.01;81.39;93133.50;5068895;28;20032;-82
2023/04/04 03:51:54;;;;;;;3.67;2.83;;;;;;;6.13;81.56;93157.38;5053059;28;20422;-83
2023/04/04 03:54:20;;;;;;;2.70;1.90;;;;;;;6.13;81.32;93144.47;5066690;28;20028;-83
2023/04/04 03:56:48;;;;;;;2.38;1.90;;;;;;;6.61;81.46;93233.75;5066623;28;20559;-83
2023/04/04 03:59:17;;;;;;;2.72;1.70;;;;;;;6.64;81.01;93220.56;5085350;28;20050;-83
2023/04/04 04:02:01;;;;;;;2.88;2.05;;;;;;;6.46;80.56;93180.97;5051181;28;20138;-83
2023/04/04 04:04:29;;;;;;;2.15;1.33;;;;;;;6.39;80.59;93174.78;5073124;28;20036;-84
2023/04/04 04:06:57;;;;;;;3.25;1.60;;;;;;;6.78;80.89;93246.88;5084680;28;20610;-83
2023/04/04 04:09:26;;;;;;;3.75;2.15;;;;;;;6.82;80.74;93258.53;5086540;28;20028;-87
2023/04/04 04:11:52;;;;;;;3.80;2.33;;;;;;;7.24;80.18;93338.13;5085947;28;20064;-82
2023/04/04 04:14:18;;;;;;;4.47;2.72;;;;;;;7.00;79.95;93292.97;5083764;28;20097;-82
2023/04/04 04:16:43;;;;;;;7.88;3.58;;;;;;;6.57;80.32;93234.19;5065241;28;20221;-83
2023/04/04 04:19:09;;;;;;;185.10;59.47;;;;;;;7.11;80.24;93321.19;5051652;28;20417;-84
2023/04/04 04:21:35;;;;;;;168.50;55.53;;;;;;;6.32;80.30;93220.13;5068787;28;20036;-81
2023/04/04 04:24:02;;;;;;;71.20;26.52;;;;;;;6.35;80.46;93236.16;5090138;28;20138;-83
2023/04/04 04:26:28;;;;;;;14.10;6.15;;;;;;;6.25;80.16;93204.41;5053763;28;20032;-80
2023/04/04 04:28:54;;;;;;;7.60;2.80;;;;;;;5.91;80.12;93163.63;5092018;28;20468;-84
2023/04/04 04:31:19;;;;;;;17.77;9.05;;;;;;;7.19;80.23;93345.47;5074408;28;20101;-79
2023/04/04 04:33:45;;;;;;;5.25;2.83;;;;;;;6.63;80.04;93264.56;5089212;28;20036;-84
2023/04/04 04:36:11;;;;;;;2.75;1.50;;;;;;;6.92;79.89;93300.63;5089707;28;20488;-84
2023/04/04 04:38:36;;;;;;;2.05;1.40;;;;;;;5.98;79.89;93145.88;5086226;28;20051;-84
2023/04/04 04:41:05;;;;;;;2.63;1.20;;;;;;;6.55;80.27;93239.50;5056438;28;20482;-84
2023/04/04 04:43:33;;;;;;;2.40;1.70;;;;;;;7.29;80.40;93364.34;5091306;28;20124;-84
2023/04/04 04:45:58;;;;;;;2.70;1.75;;;;;;;6.46;80.91;93253.22;5088859;28;20108;-83
2023/04/04 04:48:24;;;;;;;2.67;1.83;;;;;;;6.90;80.80;93310.25;5088842;28;20490;-84
2023/04/04 04:50:50;;;;;;;2.47;1.60;;;;;;;6.37;80.97;93216.19;5089643;28;20031;-84
2023/04/04 04:53:15;;;;;;;2.75;1.65;;;;;;;6.85;80.86;93273.72;5088826;28;20036;-84
2023/04/04 04:55:42;;;;;;;2.70;1.60;;;;;;;6.59;81.26;93247.75;5071441;28;20032;-83
2023/04/04 04:58:07;;;;;;;2.13;1.60;;;;;;;6.53;81.42;93238.81;5086286;28;20122;-83
2023/04/04 05:00:33;;;;;;;2.50;1.80;;;;;;;6.34;81.43;93200.19;5088637;28;20529;-84
2023/04/04 05:02:59;;;;;;;5.50;3.60;;;;;;;7.09;81.59;93340.38;5090240;28;20044;-84
2023/04/04 05:05:26;;;;;;;6.80;4.22;;;;;;;6.47;81.90;93234.22;5071000;28;20055;-84
2023/04/04 05:07:51;;;;;;;9.88;6.68;;;;;;;6.74;80.56;93253.25;5070320;28;20060;-84
2023/04/04 05:10:17;;;;;;;10.27;6.78;;;;;;;6.75;80.32;93266.03;5089466;28;20028;-84
2023/04/04 05:12:43;;;;;;;6.55;4.43;;;;;;;7.29;80.82;93354.00;5090845;28;20104;-84
2023/04/04 05:15:12;;;;;;;4.43;3.45;;;;;;;6.66;81.62;93275.44;5072276;28;20498;-84
2023/04/04 05:17:39;;;;;;;4.70;3.30;;;;;;;6.56;82.05;93254.00;5070150;28;20039;-84
2023/04/04 05:20:06;;;;;;;3.28;2.50;;;;;;;6.78;82.05;93286.41;5088770;28;20024;-84
2023/04/04 05:22:33;;;;;;;3.13;2.33;;;;;;;7.41;82.05;93373.56;5071485;28;20032;-84
2023/04/04 05:24:58;;;;;;;4.15;2.38;;;;;;;6.52;82.07;93226.88;5071265;28;20153;-84
2023/04/04 05:27:24;;;;;;;2.60;1.80;;;;;;;7.38;82.08;93353.16;5069669;28;20024;-84
2023/04/04 05:29:50;;;;;;;2.25;1.65;;;;;;;7.03;81.92;93287.53;5090778;28;20035;-84
2023/04/04 05:32:19;;;;;;;3.00;2.25;;;;;;;7.05;81.73;93295.09;5090121;28;20032;-84
2023/04/04 05:34:44;;;;;;;11.25;7.22;;;;;;;7.02;82.12;93288.50;5090671;28;20040;-84
2023/04/04 05:37:10;;;;;;;97.00;48.80;;;;;;;6.38;82.00;93189.44;5069898;28;20403;-84
2023/04/04 05:39:36;;;;;;;17.13;11.65;;;;;;;6.64;81.70;93192.19;5087890;28;20024;-84
2023/04/04 05:42:02;;;;;;;16.88;12.98;;;;;;;7.28;81.54;93274.91;5071952;28;20063;-84
2023/04/04 05:44:28;;;;;;;19.83;13.95;;;;;;;7.80;81.61;93368.16;5090798;28;20127;-84
2023/04/04 05:46:53;;;;;;;20.52;14.40;;;;;;;6.61;81.51;93189.91;5085959;28;20071;-84
2023/04/04 05:49:19;;;;;;;21.70;15.38;;;;;;;7.51;81.66;93317.47;5087923;28;20032;-83
2023/04/04 05:51:45;;;;;;;20.95;15.57;;;;;;;7.37;81.66;93289.53;5087003;28;20040;-84
2023/04/04 05:54:10;;;;;;;18.90;13.77;;;;;;;7.32;81.44;93271.06;5070646;28;20052;-84
2023/04/04 05:56:36;;;;;;;18.83;13.50;;;;;;;7.45;80.91;93286.22;5086255;28;20040;-84
2023/04/04 05:59:02;;;;;;;16.80;11.38;;;;;;;7.23;81.09;93234.00;5090490;28;20050;-84
2023/04/04 06:01:30;;;;;;;17.55;14.15;;;;;;;7.16;81.08;93214.91;5053894;28;20061;-83
2023/04/04 06:03:56;;;;;;;21.65;16.23;;;;;;;8.02;81.08;93361.75;5054352;28;20074;-84
2023/04/04 06:06:22;;;;;;;19.65;14.77;;;;;;;7.86;80.79;93318.47;5069226;28;20111;-84
2023/04/04 06:08:47;;;;;;;18.67;12.02;;;;;;;7.88;80.37;93308.78;5088696;28;20036;-84
2023/04/04 06:11:13;;;;;;;29.23;19.92;;;;;;;7.87;79.91;93322.69;5088628;28;20413;-84
2023/04/04 06:13:39;;;;;;;22.13;15.95;;;;;;;7.99;79.39;93321.50;5088736;28;20034;-84
2023/04/04 06:16:07;;;;;;;21.27;15.77;;;;;;;7.72;79.03;93277.63;5086752;28;20211;-84
2023/04/04 06:18:33;;;;;;;27.92;21.63;;;;;;;8.35;79.05;93356.91;5085988;27;20044;-84
2023/04/04 06:21:02;;;;;;;11.98;9.20;;;;;;;8.30;77.94;93344.38;5087180;28;20028;-83
2023/04/04 06:23:30;;;;;;;20.55;16.80;;;;;;;7.51;77.70;93233.97;5070341;28;20494;-84
2023/04/04 06:25:58;;;;;;;9.05;7.70;;;;;;;8.33;77.27;93351.88;5070394;28;20110;-84
2023/04/04 06:28:28;;;;;;;6.20;5.20;;;;;;;8.13;76.95;93321.94;5083821;28;20032;-84
2023/04/04 06:30:59;;;;;;;7.35;5.50;;;;;;;8.03;77.91;93299.56;5053993;28;20040;-85
2023/04/04 06:33:30;;;;;;;;;;;;;;;8.94;77.29;93431.34;5071203;28;20032;-84
2023/04/04 06:35:58;;;;;;;6.63;4.63;;;;;;;8.93;77.26;93428.91;5069779;28;19958;-84
2023/04/04 06:38:28;;;;;;;5.22;4.15;;;;;;;8.02;77.08;93313.47;5051821;28;20031;-83
2023/04/04 06:40:54;;;;;;;7.25;5.45;;;;;;;8.01;76.94;93296.31;5087767;28;20070;-83
2023/04/04 06:43:25;;;;;;;9.40;5.97;;;;;;;8.66;77.25;93403.94;5086854;28;20552;-83
2023/04/04 06:45:51;;;;;;;10.73;7.13;;;;;;;7.78;77.85;93261.53;5087525;28;20069;-83
2023/04/04 06:48:19;;;;;;;12.50;8.70;;;;;;;8.20;77.79;93328.16;5067578;28;20145;-84
2023/04/04 06:50:56;;;;;;;12.20;9.50;;;;;;;7.82;77.00;93262.84;5086195;28;21059;-84
2023/04/04 06:53:22;;;;;;;13.98;10.45;;;;;;;8.18;77.17;93328.28;5069147;28;20650;-83
2023/04/04 06:55:48;;;;;;;12.75;9.82;;;;;;;7.91;76.97;93290.41;5052885;28;20036;-83
2023/04/04 06:58:18;;;;;;;12.15;8.85;;;;;;;8.14;76.82;93337.31;5067291;28;20048;-83
2023/04/04 07:00:44;;;;;;;11.52;9.32;;;;;;;8.11;76.84;93329.88;5068608;28;20482;-85
2023/04/04 07:03:13;;;;;;;14.95;10.70;;;;;;;7.80;76.58;93275.09;5070079;28;20043;-83
2023/04/04 07:05:38;;;;;;;11.73;8.30;;;;;;;7.83;76.66;93288.56;5084976;28;20047;-75
2023/04/04 07:08:04;;;;;;;11.68;8.80;;;;;;;8.95;76.73;93497.72;5086182;28;20748;-77
2023/04/04 07:10:35;;;;;;;9.35;7.30;;;;;;;8.91;76.04;93511.94;5083630;28;20032;-88
2023/04/04 07:13:01;;;;;;;4.20;3.10;;;;;;;7.91;70.79;93404.19;5070411;28;20425;-84
2023/04/04 07:15:41;;;;;;;4.80;2.72;;;;;;;7.99;70.02;93476.66;5086379;28;20050;-85
2023/04/04 07:18:07;;;;;;;3.30;2.42;;;;;;;7.36;70.14;93406.75;5084947;28;20039;-81
2023/04/04 07:20:33;;;;;;;3.78;2.40;;;;;;;7.89;69.28;93542.31;5070837;28;20081;-81
2023/04/04 07:22:59;;;;;;;2.40;1.52;;;;;;;6.92;68.71;93399.53;5070070;28;20040;-81
2023/04/04 07:25:27;;;;;;;3.00;1.60;;;;;;;6.19;68.92;93368.25;5086042;28;20118;-81
2023/04/04 07:27:54;;;;;;;1.70;1.10;;;;;;;6.52;68.44;93453.91;5040802;28;20120;-80
2023/04/04 07:30:22;;;;;;;1.55;0.90;;;;;;;6.81;69.14;93566.66;5087296;28;20398;-81
2023/04/04 07:32:55;;;;;;;1.35;0.77;;;;;;;5.69;68.75;93442.22;5086057;28;20028;-81
2023/04/04 07:35:21;;;;;;;1.60;1.00;;;;;;;5.55;68.30;93451.13;5068530;28;20077;-81
2023/04/04 07:37:46;;;;;;;1.60;1.10;;;;;;;6.32;69.84;93571.72;5066074;28;20438;-80
2023/04/04 07:40:12;;;;;;;1.40;0.80;;;;;;;5.98;69.44;93558.31;5067610;28;20058;-81
2023/04/04 07:42:43;;;;;;;2.55;1.38;;;;;;;6.06;71.20;93573.13;5074395;28;20166;-81
2023/04/04 07:45:08;;;;;;;4.67;1.77;;;;;;;5.53;71.72;93507.09;5052307;28;20036;-81
2023/04/04 07:47:34;;;;;;;7.55;3.53;;;;;;;5.47;71.67;93512.75;5068124;28;20848;-81
2023/04/04 07:50:00;;;;;;;7.40;4.00;;;;;;;5.03;71.86;93469.13;5052154;28;20073;-81
2023/04/04 07:52:25;;;;;;;3.42;1.80;;;;;;;4.96;71.85;93487.78;5088036;28;20028;-81
2023/04/04 07:54:52;;;;;;;32.85;13.98;;;;;;;4.69;70.37;93460.81;5052574;28;20047;-81
2023/04/04 07:57:17;;;;;;;24.33;10.80;;;;;;;5.01;72.27;93550.00;5067478;28;20406;-81
2023/04/04 07:59:43;;;;;;;55.67;24.10;;;;;;;5.08;71.83;93566.59;5085553;28;20040;-81
2023/04/04 08:02:09;;;;;;;5.50;3.35;;;;;;;5.16;71.51;93595.09;5052510;28;20563;-80
2023/04/04 08:04:34;;;;;;;3.22;2.10;;;;;;;4.73;71.44;93523.09;5069245;28;20127;-81
2023/04/04 08:07:00;;;;;;;3.83;2.78;;;;;;;4.68;70.70;93552.59;5067354;28;20054;-81
2023/04/04 08:09:33;;;;;;;5.43;3.90;;;;;;;4.63;71.18;93538.47;5067301;28;20505;-81
2023/04/04 08:11:58;;;;;;;3.08;2.20;;;;;;;5.10;72.52;93604.16;5085531;28;20077;-81
2023/04/04 08:14:24;;;;;;;2.40;1.67;;;;;;;5.20;71.99;93640.25;5052587;28;20040;-81
2023/04/04 08:16:50;;;;;;;2.30;1.30;;;;;;;4.14;70.73;93485.78;5084373;28;20040;-81
2023/04/04 08:19:16;;;;;;;2.85;1.50;;;;;;;4.79;70.23;93615.22;5052069;28;20656;-81
2023/04/04 08:21:43;;;;;;;2.00;1.20;;;;;;;4.82;70.79;93620.97;5068439;28;20526;-81
2023/04/04 08:24:09;;;;;;;4.13;1.30;;;;;;;4.91;71.18;93642.59;5052824;28;20028;-81
2023/04/04 08:26:34;;;;;;;2.65;1.50;;;;;;;4.57;70.94;93618.66;5049717;28;20141;-81
2023/04/04 08:29:00;;;;;;;4.15;2.35;;;;;;;3.72;72.10;93449.66;5084268;28;20114;-81
2023/04/04 08:31:27;;;;;;;3.20;1.80;;;;;;;4.13;70.98;93517.56;5068786;28;20054;-81
2023/04/04 08:33:52;;;;;;;2.63;1.58;;;;;;;3.86;71.20;93489.69;5068641;28;20032;-81
2023/04/04 08:36:18;;;;;;;2.25;1.45;;;;;;;4.18;72.17;93530.84;5084879;28;20673;-81
2023/04/04 08:38:44;;;;;;;3.38;1.77;;;;;;;4.45;71.38;93551.81;5086675;28;20093;-87
2023/04/04 08:41:10;;;;;;;3.30;2.17;;;;;;;4.58;71.09;93579.16;5067987;28;20043;-80
2023/04/04 08:43:36;;;;;;;3.00;1.75;;;;;;;4.61;71.87;93617.50;5051928;28;20028;-81
2023/04/04 08:46:03;;;;;;;6.05;1.73;;;;;;;4.59;72.46;93629.66;5048003;28;20032;-81
2023/04/04 08:48:29;;;;;;;2.28;1.60;;;;;;;4.13;72.57;93556.13;5067897;28;20039;-80
2023/04/04 08:50:56;;;;;;;3.00;1.58;;;;;;;4.25;72.72;93593.72;5067984;28;20028;-81
2023/04/04 08:53:22;;;;;;;2.70;1.58;;;;;;;4.57;71.93;93662.41;5069064;28;20501;-80
2023/04/04 08:55:48;;;;;;;2.85;1.48;;;;;;;4.06;72.15;93578.88;5085479;28;20043;-80
2023/04/04 08:58:16;;;;;;;4.82;1.92;;;;;;;4.05;71.63;93589.31;5084322;28;20028;-81
2023/04/04 09:00:41;;;;;;;2.40;1.73;;;;;;;3.95;72.10;93574.56;5084178;28;20120;-80
2023/04/04 09:03:21;;;;;;;3.22;2.00;;;;;;;4.03;71.83;93608.22;5085151;28;20209;-80
2023/04/04 09:05:47;;;;;;;3.35;2.10;;;;;;;4.21;73.37;93630.91;5082973;28;20056;-80
2023/04/04 09:08:13;;;;;;;3.20;2.13;;;;;;;4.50;73.48;93656.09;5066061;28;20066;-81
2023/04/04 09:10:40;;;;;;;3.65;2.53;;;;;;;4.78;73.82;93713.97;5088346;28;20028;-81
2023/04/04 09:13:06;;;;;;;3.28;2.65;;;;;;;4.14;74.07;93604.81;5072137;28;20059;-81
2023/04/04 09:15:31;;;;;;;3.28;1.80;;;;;;;4.76;72.78;93708.09;5071386;28;20506;-81
2023/04/04 09:17:57;;;;;;;2.83;2.22;;;;;;;4.79;73.62;93708.72;5070480;28;20032;-80
2023/04/04 09:20:46;;;;;;;3.88;2.00;;;;;;;4.82;72.63;93710.19;5089698;28;20028;-80
2023/04/04 09:23:13;;;;;;;2.58;1.70;;;;;;;4.48;70.76;93659.63;5084158;28;20077;-81
2023/04/04 09:25:46;;;;;;;2.30;1.75;;;;;;;3.79;72.65;93599.81;5055513;28;20036;-84
2023/04/04 09:28:16;;;;;;;3.28;2.00;;;;;;;4.51;72.69;93686.84;5087736;28;20452;-84
2023/04/04 09:30:43;;;;;;;3.22;1.85;;;;;;;4.40;73.94;93645.69;5072819;28;20024;-83
2023/04/04 09:33:10;;;;;;;3.60;2.10;;;;;;;4.02;74.93;93603.22;5072492;28;20059;-81
2023/04/04 09:35:37;;;;;;;6.25;3.80;;;;;;;4.30;73.59;93635.31;5072182;28;20027;-82
2023/04/04 09:38:06;;;;;;;18.08;10.48;;;;;;;4.02;72.76;93573.19;5070945;28;20036;-81
2023/04/04 09:40:31;;;;;;;11.63;7.57;;;;;;;3.72;73.63;93512.09;5089296;28;20028;-81
2023/04/04 09:43:01;;;;;;;9.45;6.10;;;;;;;4.79;71.01;93706.13;5088288;28;20082;-82
2023/04/04 09:45:29;;;;;;;6.03;4.97;;;;;;;4.27;70.94;93625.28;5089465;28;20054;-82
2023/04/04 09:47:55;;;;;;;7.72;5.00;;;;;;;4.36;71.91;93606.56;5071394;28;20036;-82
2023/04/04 09:50:22;;;;;;;7.75;3.85;;;;;;;4.46;71.91;93647.81;5075465;28;20024;-82
2023/04/04 09:52:48;;;;;;;3.85;3.13;;;;;;;4.03;71.04;93556.81;5086682;28;20032;-82
2023/04/04 09:55:14;;;;;;;4.28;3.38;;;;;;;4.28;71.51;93624.31;5071115;28;20034;-81
2023/04/04 09:57:40;;;;;;;3.50;2.38;;;;;;;3.86;69.87;93566.75;5069584;28;20417;-82
2023/04/04 10:00:08;;;;;;;4.68;2.22;;;;;;;3.69;71.61;93547.50;5070935;28;20120;-81
2023/04/04 10:02:34;;;;;;;2.70;2.05;;;;;;;3.57;71.60;93519.25;5070973;28;20032;-81
2023/04/04 10:05:00;;;;;;;7.65;2.97;;;;;;;3.48;73.58;93493.44;5070420;28;20048;-81
2023/04/04 10:07:26;;;;;;;3.10;2.40;;;;;;;3.91;71.73;93567.22;5053128;28;20118;-81
2023/04/04 10:09:55;;;;;;;2.63;1.60;;;;;;;3.93;69.55;93591.88;5071866;28;20126;-81
2023/04/04 10:12:24;;;;;;;2.78;2.20;;;;;;;4.37;70.87;93651.09;5088372;28;20561;-81
2023/04/04 10:15:00;;;;;;;3.15;2.22;;;;;;;4.77;70.01;93745.78;5058138;28;20039;-80
2023/04/04 10:17:44;;;;;;;3.28;2.25;;;;;;;4.14;69.98;93645.94;5085805;28;20032;-80
2023/04/04 10:20:10;;;;;;;2.60;1.90;;;;;;;4.13;69.54;93649.47;5087935;28;20494;-78
2023/04/04 10:22:36;;;;;;;2.72;2.00;;;;;;;4.05;69.80;93630.44;5070491;28;20042;-80
2023/04/04 10:25:03;;;;;;;3.00;1.92;;;;;;;4.57;70.34;93714.69;5088173;28;20538;-79
2023/04/04 10:27:28;;;;;;;3.70;2.03;;;;;;;4.17;70.78;93665.47;5066982;28;20107;-79
2023/04/04 10:29:56;;;;;;;5.15;2.40;;;;;;;4.29;69.38;93700.53;5069119;28;20082;-80
2023/04/04 10:32:24;;;;;;;3.30;2.17;;;;;;;4.51;69.75;93755.47;5069637;28;20103;-78
2023/04/04 10:35:01;;;;;;;4.03;2.40;;;;;;;3.70;69.33;93628.75;5086900;28;20108;-81
2023/04/04 10:37:27;;;;;;;4.07;3.05;;;;;;;3.96;70.02;93652.50;5064552;28;20458;-80
2023/04/04 10:40:00;;;;;;;7.40;3.90;;;;;;;3.03;68.93;93517.28;5053933;28;20032;-81
2023/04/04 10:42:26;;;;;;;3.63;2.70;;;;;;;4.17;69.22;93686.03;5070584;28;20088;-83
2023/04/04 10:44:51;;;;;;;4.63;3.60;;;;;;;4.65;70.01;93758.66;5086071;28;20498;-76
2023/04/04 10:47:20;;;;;;;3.65;2.67;;;;;;;4.28;69.28;93700.66;5085717;28;20421;-83
2023/04/04 10:49:46;;;;;;;3.70;2.78;;;;;;;4.74;68.86;93766.59;5085570;28;20571;-79
2023/04/04 10:52:14;;;;;;;4.60;3.38;;;;;;;4.67;69.29;93754.19;5087938;28;20218;-76
2023/04/04 10:54:40;;;;;;;3.97;2.63;;;;;;;4.65;68.84;93762.94;5070425;28;20119;-78
2023/04/04 10:57:14;;;;;;;5.18;4.13;;;;;;;4.74;67.70;93766.59;5068129;28;20039;-87
2023/04/04 11:00:01;;;;;;;3.47;2.55;;;;;;;4.78;68.93;93773.94;5087269;28;20030;-77
2023/04/04 11:02:46;;;;;;;4.20;2.63;;;;;;;4.87;68.71;93772.41;5088311;28;20032;-78
2023/04/04 11:05:22;;;;;;;7.22;4.47;;;;;;;4.92;67.33;93771.13;5087068;28;20036;-77
2023/04/04 11:08:01;;;;;;;6.13;3.78;;;;;;;4.85;66.50;93777.72;5087365;28;20024;-77
2023/04/04 11:10:30;;;;;;;8.73;4.43;;;;;;;4.62;67.25;93746.00;5087819;28;20036;-76
2023/04/04 11:13:03;;;;;;;5.60;3.35;;;;;;;4.85;66.09;93782.03;5086843;28;20024;-76
2023/04/04 11:15:28;;;;;;;3.55;2.70;;;;;;;4.95;65.35;93780.38;5086582;28;20035;-76
2023/04/04 11:17:58;;;;;;;2.95;2.20;;;;;;;4.59;66.11;93742.84;5067389;28;20111;-77
2023/04/04 11:20:30;;;;;;;6.30;3.83;;;;;;;4.93;64.77;93779.66;5088495;28;20158;-76
2023/04/04 11:23:03;;;;;;;27.17;12.07;;;;;;;4.67;65.57;93758.50;5087961;28;20035;-76
2023/04/04 11:25:35;;;;;;;5.93;3.75;;;;;;;4.84;66.06;93788.91;5069819;28;20035;-77
2023/04/04 11:28:42;;;;;;;5.28;2.80;;;;;;;4.90;65.56;93790.19;5086309;28;20277;-76
2023/04/04 11:31:17;;;;;;;3.80;3.13;;;;;;;4.89;66.13;93784.25;5086396;28;20032;-80
2023/04/04 11:34:01;;;;;;;3.55;2.72;;;;;;;4.63;66.16;93772.56;5085882;28;20059;-80
2023/04/04 11:36:40;;;;;;;4.70;3.20;;;;;;;4.67;65.52;93786.81;5068188;28;20457;-80
2023/04/04 11:39:05;;;;;;;9.55;4.90;;;;;;;4.76;65.80;93798.16;5087669;28;20036;-80
2023/04/04 11:42:02;;;;;;;4.97;3.40;;;;;;;4.52;64.16;93777.69;5087950;28;20039;-79